createdAt,value
2022-11-25T00:01:12.067Z,2.00
2022-11-25T00:03:39.914Z,2.47
2022-11-25T00:06:17.408Z,2.30
2022-11-25T00:08:45.661Z,1.77
2022-11-25T00:11:13.875Z,2.10
2022-11-25T00:13:42.803Z,1.85
2022-11-25T00:16:11.661Z,2.33
2022-11-25T00:18:39.285Z,2.10
2022-11-25T00:21:11.015Z,1.87
2022-11-25T00:23:39.317Z,2.20
2022-11-25T00:26:10.609Z,2.05
2022-11-25T00:28:38.082Z,1.90
2022-11-25T00:31:09.156Z,2.10
2022-11-25T00:33:36.700Z,2.00
2022-11-25T00:36:05.487Z,1.80
2022-11-25T00:38:33.045Z,2.30
2022-11-25T00:41:19.075Z,2.40
2022-11-25T00:44:05.435Z,2.38
2022-11-25T00:46:32.890Z,2.17
2022-11-25T00:49:00.452Z,2.10
2022-11-25T00:51:28.522Z,2.10
2022-11-25T00:53:58.875Z,2.00
2022-11-25T00:56:27.328Z,2.10
2022-11-25T00:58:54.990Z,2.40
2022-11-25T01:01:22.915Z,1.88
2022-11-25T01:03:52.787Z,2.13
2022-11-25T01:06:20.415Z,2.38
2022-11-25T01:08:47.686Z,2.70
2022-11-25T01:11:16.400Z,1.93
2022-11-25T01:13:43.729Z,2.10
2022-11-25T01:16:13.859Z,2.30
2022-11-25T01:18:41.095Z,1.98
2022-11-25T01:21:10.084Z,2.45
2022-11-25T01:23:38.166Z,1.83
2022-11-25T01:26:05.888Z,2.28
2022-11-25T01:28:33.571Z,2.33
2022-11-25T01:31:01.837Z,2.30
2022-11-25T01:33:33.616Z,2.20
2022-11-25T01:36:04.231Z,2.10
2022-11-25T01:38:31.986Z,2.42
2022-11-25T01:40:59.689Z,2.35
2022-11-25T01:43:28.594Z,2.45
2022-11-25T01:46:07.783Z,2.22
2022-11-25T01:48:48.210Z,2.13
2022-11-25T01:51:22.782Z,2.97
2022-11-25T01:53:51.261Z,2.50
2022-11-25T01:56:20.148Z,2.30
2022-11-25T01:58:48.709Z,2.30
2022-11-25T02:01:16.875Z,2.63
2022-11-25T02:03:46.047Z,2.42
2022-11-25T02:06:20.093Z,2.83
2022-11-25T02:08:50.231Z,2.10
2022-11-25T02:11:18.758Z,2.55
2022-11-25T02:13:46.980Z,2.90
2022-11-25T02:16:14.339Z,2.53
2022-11-25T02:18:41.785Z,2.45
2022-11-25T02:21:09.268Z,2.45
2022-11-25T02:23:46.624Z,2.60
2022-11-25T02:26:14.089Z,2.60
2022-11-25T02:28:41.640Z,2.85
2022-11-25T02:31:09.240Z,2.53
2022-11-25T02:33:36.668Z,2.70
2022-11-25T02:36:05.995Z,2.95
2022-11-25T02:38:39.548Z,2.90
2022-11-25T02:41:26.883Z,2.92
2022-11-25T02:43:54.083Z,3.00
2022-11-25T02:46:23.573Z,2.95
2022-11-25T02:51:40.148Z,2.83
2022-11-25T02:54:07.881Z,2.65
2022-11-25T02:56:35.992Z,3.17
2022-11-25T02:59:03.282Z,2.70
2022-11-25T03:01:31.614Z,2.95
2022-11-25T03:03:59.170Z,3.03
2022-11-25T03:06:26.469Z,2.83
2022-11-25T03:08:53.592Z,2.92
2022-11-25T03:11:42.638Z,3.00
2022-11-25T03:14:10.506Z,2.97
2022-11-25T03:16:38.418Z,3.57
2022-11-25T03:19:05.928Z,3.08
2022-11-25T03:21:33.690Z,3.28
2022-11-25T03:24:01.505Z,3.03
2022-11-25T03:26:29.013Z,3.22
2022-11-25T03:28:56.467Z,2.60
2022-11-25T03:31:24.044Z,2.78
2022-11-25T03:33:51.535Z,2.60
2022-11-25T03:36:18.892Z,3.00
2022-11-25T03:38:46.456Z,3.05
2022-11-25T03:41:14.060Z,2.73
2022-11-25T03:43:41.464Z,2.72
2022-11-25T03:46:09.572Z,2.55
2022-11-25T03:48:37.003Z,2.30
2022-11-25T03:51:04.409Z,2.45
2022-11-25T03:53:31.767Z,2.27
2022-11-25T03:55:59.324Z,2.50
2022-11-25T03:58:26.780Z,2.00
2022-11-25T04:00:54.278Z,2.00
2022-11-25T04:03:21.817Z,2.30
2022-11-25T04:05:49.294Z,1.67
2022-11-25T04:08:16.857Z,1.83
2022-11-25T04:10:44.346Z,1.80
2022-11-25T04:13:11.993Z,1.48
2022-11-25T04:15:39.618Z,1.70
2022-11-25T04:18:06.972Z,1.40
2022-11-25T04:20:34.454Z,1.25
2022-11-25T04:23:02.803Z,1.40
2022-11-25T04:25:30.120Z,1.30
2022-11-25T04:27:57.548Z,1.27
2022-11-25T04:30:24.887Z,1.30
2022-11-25T04:32:52.338Z,1.17
2022-11-25T04:35:19.826Z,1.23
2022-11-25T04:37:47.199Z,1.08
2022-11-25T04:40:14.798Z,1.27
2022-11-25T04:42:42.490Z,1.07
2022-11-25T04:45:33.362Z,1.25
2022-11-25T04:48:00.766Z,1.10
2022-11-25T04:50:28.509Z,0.95
2022-11-25T04:52:56.352Z,1.30
2022-11-25T04:55:24.033Z,1.07
2022-11-25T04:57:51.592Z,1.30
2022-11-25T05:00:21.133Z,1.48
2022-11-25T05:02:48.479Z,1.15
2022-11-25T05:05:15.783Z,1.10
2022-11-25T05:07:43.085Z,1.03
2022-11-25T05:10:10.570Z,1.13
2022-11-25T05:12:38.137Z,1.00
2022-11-25T05:15:06.044Z,1.10
2022-11-25T05:17:33.526Z,1.33
2022-11-25T05:20:00.788Z,1.50
2022-11-25T05:22:30.097Z,1.67
2022-11-25T05:24:57.526Z,2.38
2022-11-25T05:27:25.210Z,1.38
2022-11-25T05:29:55.992Z,1.42
2022-11-25T05:32:24.079Z,1.50
2022-11-25T05:34:51.844Z,1.15
2022-11-25T05:37:24.508Z,1.40
2022-11-25T05:39:52.326Z,1.10
2022-11-25T05:42:19.842Z,1.00
2022-11-25T05:44:47.378Z,1.23
2022-11-25T05:47:16.121Z,0.90
2022-11-25T05:49:43.423Z,1.10
2022-11-25T05:52:10.708Z,1.30
2022-11-25T05:54:38.176Z,1.10
2022-11-25T05:57:05.763Z,1.00
2022-11-25T05:59:32.947Z,1.65
2022-11-25T06:02:00.262Z,1.05
2022-11-25T06:04:27.581Z,1.17
2022-11-25T06:06:54.887Z,1.10
2022-11-25T06:09:22.333Z,1.10
2022-11-25T06:11:49.849Z,1.30
2022-11-25T06:14:19.855Z,1.52
2022-11-25T06:16:46.941Z,1.33
2022-11-25T06:19:14.134Z,1.60
2022-11-25T06:21:41.325Z,1.30
2022-11-25T06:24:08.539Z,1.42
2022-11-25T06:26:35.653Z,1.33
2022-11-25T06:29:02.794Z,1.50
2022-11-25T06:31:30.002Z,1.55
2022-11-25T06:33:57.265Z,1.93
2022-11-25T06:36:24.719Z,1.80
2022-11-25T06:38:53.334Z,1.50
2022-11-25T06:41:20.919Z,1.55
2022-11-25T06:43:48.050Z,1.77
2022-11-25T06:46:19.858Z,1.60
2022-11-25T06:48:51.706Z,1.83
2022-11-25T06:51:19.337Z,2.17
2022-11-25T06:53:46.917Z,2.05
2022-11-25T06:56:14.818Z,2.25
2022-11-25T06:58:43.198Z,2.00
2022-11-25T07:01:18.703Z,3.30
2022-11-25T07:03:47.193Z,2.30
2022-11-25T07:06:15.814Z,2.70
2022-11-25T07:08:43.840Z,2.25
2022-11-25T07:11:17.655Z,2.10
2022-11-25T07:13:44.872Z,2.53
2022-11-25T07:16:12.310Z,2.60
2022-11-25T07:18:40.049Z,2.38
2022-11-25T07:21:12.365Z,3.08
2022-11-25T07:23:40.453Z,2.83
2022-11-25T07:26:12.438Z,2.92
2022-11-25T07:28:43.620Z,2.95
2022-11-25T07:31:24.340Z,2.70
2022-11-25T07:33:56.233Z,2.90
2022-11-25T07:36:24.613Z,2.80
2022-11-25T07:38:54.633Z,2.88
2022-11-25T07:41:23.997Z,2.50
2022-11-25T07:43:56.917Z,2.72
2022-11-25T07:46:27.552Z,2.72
2022-11-25T07:49:02.384Z,2.73
2022-11-25T07:51:36.829Z,3.00
2022-11-25T07:54:05.759Z,2.60
2022-11-25T07:56:34.879Z,2.40
2022-11-25T07:59:01.983Z,2.75
2022-11-25T08:01:29.500Z,2.87
2022-11-25T08:03:57.208Z,3.10
2022-11-25T08:06:25.469Z,2.95
2022-11-25T08:08:55.765Z,2.88
2022-11-25T08:11:24.748Z,3.20
2022-11-25T08:13:52.324Z,3.20
2022-11-25T08:16:20.833Z,2.90
2022-11-25T08:18:48.451Z,3.00
2022-11-25T08:21:16.713Z,3.47
2022-11-25T08:23:44.895Z,3.65
2022-11-25T08:26:17.894Z,2.93
2022-11-25T08:28:45.380Z,3.67
2022-11-25T08:31:15.033Z,3.50
2022-11-25T08:33:43.231Z,3.90
2022-11-25T08:36:11.168Z,3.33
2022-11-25T08:38:38.550Z,3.40
2022-11-25T08:41:10.533Z,4.00
2022-11-25T08:43:39.114Z,3.95
2022-11-25T08:46:11.036Z,3.45
2022-11-25T08:48:38.516Z,3.65
2022-11-25T08:51:09.575Z,3.43
2022-11-25T08:53:37.217Z,3.13
2022-11-25T08:56:04.777Z,3.95
2022-11-25T08:58:32.430Z,3.50
2022-11-25T09:01:00.409Z,3.63
2022-11-25T09:03:28.129Z,2.93
2022-11-25T09:05:55.936Z,3.25
2022-11-25T09:08:23.497Z,3.05
2022-11-25T09:10:52.578Z,2.80
2022-11-25T09:13:20.435Z,3.42
2022-11-25T09:15:50.895Z,3.00
2022-11-25T09:18:20.172Z,2.65
2022-11-25T09:20:48.135Z,2.92
2022-11-25T09:23:15.246Z,2.90
2022-11-25T09:25:42.333Z,2.70
2022-11-25T09:28:10.503Z,2.70
2022-11-25T09:30:38.307Z,2.70
2022-11-25T09:33:05.457Z,3.03
2022-11-25T09:35:33.637Z,3.05
2022-11-25T09:38:00.761Z,2.72
2022-11-25T09:40:36.310Z,2.70
2022-11-25T09:43:30.999Z,2.70
2022-11-25T09:46:29.475Z,2.88
2022-11-25T09:49:05.208Z,3.17
2022-11-25T09:51:41.052Z,2.88
2022-11-25T09:54:19.770Z,2.60
2022-11-25T09:56:50.621Z,2.50
2022-11-25T09:59:32.770Z,2.45
2022-11-25T10:02:02.448Z,2.38
2022-11-25T10:04:44.034Z,2.50
2022-11-25T10:07:14.664Z,2.60
2022-11-25T10:09:42.121Z,2.45
2022-11-25T10:12:17.441Z,2.20
2022-11-25T10:14:49.831Z,2.30
2022-11-25T10:17:40.638Z,2.28
2022-11-25T10:20:18.320Z,2.80
2022-11-25T10:22:47.610Z,2.30
2022-11-25T10:25:18.279Z,2.60
2022-11-25T10:27:48.755Z,2.60
2022-11-25T10:30:21.677Z,2.33
2022-11-25T10:33:07.960Z,2.63
2022-11-25T10:35:37.599Z,2.85
2022-11-25T10:38:06.571Z,4.57
2022-11-25T10:40:33.910Z,3.17
2022-11-25T10:43:03.326Z,2.42
2022-11-25T10:45:37.867Z,2.57
2022-11-25T10:48:18.737Z,2.72
2022-11-25T10:50:52.009Z,2.95
2022-11-25T10:53:23.664Z,2.50
2022-11-25T10:56:12.113Z,2.90
2022-11-25T10:58:42.616Z,2.43
2022-11-25T11:01:23.053Z,2.58
2022-11-25T11:04:05.105Z,2.50
2022-11-25T11:06:33.939Z,2.90
2022-11-25T11:09:01.105Z,2.42
2022-11-25T11:11:28.681Z,2.40
2022-11-25T11:14:00.901Z,2.10
2022-11-25T11:16:34.739Z,2.30
2022-11-25T11:19:02.199Z,2.40
2022-11-25T11:21:34.493Z,2.22
2022-11-25T11:24:02.536Z,2.43
2022-11-25T11:26:31.405Z,2.20
2022-11-25T11:29:00.449Z,2.45
2022-11-25T11:31:29.970Z,2.00
2022-11-25T11:33:57.452Z,2.00
2022-11-25T11:36:24.911Z,1.80
2022-11-25T11:39:05.575Z,2.00
2022-11-25T11:41:51.717Z,2.15
2022-11-25T11:44:25.326Z,2.30
2022-11-25T11:46:58.590Z,2.00
2022-11-25T11:49:30.384Z,1.80
2022-11-25T11:52:12.372Z,1.95
2022-11-25T11:54:47.304Z,1.65
2022-11-25T11:57:33.684Z,1.90
2022-11-25T12:00:04.469Z,2.13
2022-11-25T12:02:31.766Z,2.07
2022-11-25T12:05:11.514Z,1.60
2022-11-25T12:07:38.899Z,1.70
2022-11-25T12:10:18.242Z,1.58
2022-11-25T12:12:48.610Z,1.48
2022-11-25T12:15:18.625Z,1.90
2022-11-25T12:17:50.766Z,1.70
2022-11-25T12:20:23.282Z,1.60
2022-11-25T12:22:57.371Z,1.67
2022-11-25T12:25:26.720Z,1.70
2022-11-25T12:27:56.451Z,2.10
2022-11-25T12:30:24.420Z,1.55
2022-11-25T12:33:00.927Z,1.55
2022-11-25T12:35:47.110Z,1.73
2022-11-25T12:38:14.315Z,1.92
2022-11-25T12:40:43.877Z,1.40
2022-11-25T12:43:19.733Z,1.30
2022-11-25T12:45:47.560Z,1.60
2022-11-25T12:48:19.982Z,1.25
2022-11-25T12:51:01.856Z,1.25
2022-11-25T12:53:52.366Z,1.20
2022-11-25T12:56:22.821Z,1.42
2022-11-25T12:59:22.680Z,1.40
2022-11-25T13:02:02.564Z,1.50
2022-11-25T13:04:36.355Z,1.48
2022-11-25T13:07:09.149Z,1.57
2022-11-25T13:09:51.987Z,1.33
2022-11-25T13:12:35.436Z,1.55
2022-11-25T13:15:24.682Z,1.75
2022-11-25T13:17:55.616Z,1.40
2022-11-25T13:20:25.958Z,1.90
2022-11-25T13:23:03.517Z,1.40
2022-11-25T13:25:31.347Z,1.40
2022-11-25T13:28:00.090Z,1.30
2022-11-25T13:30:33.269Z,1.50
2022-11-25T13:33:23.344Z,1.63
2022-11-25T13:35:50.482Z,2.05
2022-11-25T13:38:37.430Z,1.50
2022-11-25T13:41:17.009Z,1.80
2022-11-25T13:44:01.731Z,1.58
2022-11-25T13:46:39.106Z,1.63
2022-11-25T13:49:22.130Z,1.58
2022-11-25T13:51:50.555Z,1.80
2022-11-25T13:54:23.848Z,1.70
2022-11-25T13:57:05.082Z,2.00
2022-11-25T13:59:36.915Z,1.43
2022-11-25T14:02:25.548Z,1.25
2022-11-25T14:05:11.689Z,3.70
2022-11-25T14:07:38.956Z,2.15
2022-11-25T14:10:17.959Z,1.63
2022-11-25T14:12:49.116Z,1.80
2022-11-25T14:15:22.342Z,1.40
2022-11-25T14:18:04.521Z,1.92
2022-11-25T14:20:34.932Z,1.50
2022-11-25T14:23:24.225Z,1.75
2022-11-25T14:25:53.602Z,1.47
2022-11-25T14:28:20.853Z,1.58
2022-11-25T14:30:53.605Z,1.70
2022-11-25T14:33:46.976Z,1.50
2022-11-25T14:36:16.156Z,1.20
2022-11-25T14:38:50.513Z,1.70
2022-11-25T14:41:20.936Z,1.60
2022-11-25T14:43:51.832Z,1.90
2022-11-25T14:46:21.021Z,2.20
2022-11-25T14:49:30.692Z,1.95
2022-11-25T14:51:57.674Z,1.80
2022-11-25T14:54:25.220Z,2.33
2022-11-25T14:56:53.392Z,2.20
2022-11-25T14:59:21.974Z,1.92
2022-11-25T15:01:55.795Z,1.85
2022-11-25T15:04:24.642Z,2.90
2022-11-25T15:07:00.865Z,2.40
2022-11-25T15:09:29.623Z,2.17
2022-11-25T15:11:59.139Z,1.98
2022-11-25T15:14:34.209Z,2.10
2022-11-25T15:17:08.488Z,2.17
2022-11-25T15:19:37.577Z,2.00
2022-11-25T15:22:24.838Z,2.00
2022-11-25T15:24:55.781Z,2.50
2022-11-25T15:27:28.448Z,2.00
2022-11-25T15:29:57.090Z,1.70
2022-11-25T15:32:28.664Z,2.10
2022-11-25T15:34:58.156Z,2.20
2022-11-25T15:37:26.090Z,2.60
2022-11-25T15:40:12.219Z,1.83
2022-11-25T15:42:43.103Z,2.30
2022-11-25T15:45:18.722Z,2.70
2022-11-25T15:47:46.302Z,1.92
2022-11-25T15:50:13.943Z,2.20
2022-11-25T15:52:41.781Z,2.47
2022-11-25T15:55:19.177Z,2.07
2022-11-25T15:57:49.960Z,1.90
2022-11-25T16:00:19.066Z,2.50
2022-11-25T16:02:46.195Z,2.80
2022-11-25T16:05:16.446Z,2.83
2022-11-25T16:07:52.618Z,2.73
2022-11-25T16:10:27.771Z,2.95
2022-11-25T16:13:19.600Z,2.65
2022-11-25T16:15:51.701Z,3.47
2022-11-25T16:18:39.231Z,3.70
2022-11-25T16:21:19.341Z,3.30
2022-11-25T16:23:48.362Z,3.50
2022-11-25T16:26:23.675Z,3.28
2022-11-25T16:28:53.183Z,3.40
2022-11-25T16:31:20.787Z,3.42
2022-11-25T16:33:48.809Z,3.60
2022-11-25T16:36:16.469Z,3.50
2022-11-25T16:38:44.437Z,3.67
2022-11-25T16:41:18.083Z,3.88
2022-11-25T16:43:46.170Z,4.68
2022-11-25T16:46:18.439Z,4.13
2022-11-25T16:48:46.344Z,4.60
2022-11-25T16:51:31.712Z,4.45
2022-11-25T16:53:58.998Z,5.70
2022-11-25T16:56:28.651Z,7.00
2022-11-25T16:58:56.073Z,4.30
2022-11-25T17:01:24.660Z,5.03
2022-11-25T17:03:52.485Z,4.63
2022-11-25T17:06:22.672Z,5.88
2022-11-25T17:08:51.272Z,8.98
2022-11-25T17:11:43.288Z,4.80
2022-11-25T17:14:23.895Z,4.70
2022-11-25T17:16:51.912Z,4.55
2022-11-25T17:19:19.249Z,6.53
2022-11-25T17:21:47.171Z,7.60
2022-11-25T17:24:19.354Z,6.87
2022-11-25T17:26:48.281Z,6.88
2022-11-25T17:29:17.202Z,7.38
2022-11-25T17:31:45.094Z,6.50
2022-11-25T17:34:16.912Z,7.57
2022-11-25T17:36:45.014Z,4.47
2022-11-25T17:39:13.493Z,4.32
2022-11-25T17:41:42.845Z,5.13
2022-11-25T17:44:23.229Z,6.55
2022-11-25T17:46:51.004Z,6.53
2022-11-25T17:49:18.437Z,6.53
2022-11-25T17:51:45.879Z,5.40
2022-11-25T17:54:13.070Z,6.03
2022-11-25T17:56:41.246Z,6.82
2022-11-25T17:59:12.174Z,4.85
2022-11-25T18:01:41.526Z,4.28
2022-11-25T18:04:22.116Z,3.77
2022-11-25T18:06:49.608Z,3.20
2022-11-25T18:09:17.471Z,3.25
2022-11-25T18:11:47.056Z,3.20
2022-11-25T18:14:17.216Z,5.55
2022-11-25T18:16:44.591Z,2.90
2022-11-25T18:19:13.358Z,2.50
2022-11-25T18:21:41.112Z,4.20
2022-11-25T18:24:08.337Z,4.38
2022-11-25T18:26:41.899Z,5.75
2022-11-25T18:29:14.986Z,6.60
2022-11-25T18:31:42.486Z,8.68
2022-11-25T18:34:16.405Z,7.70
2022-11-25T18:36:44.214Z,8.35
2022-11-25T18:39:11.851Z,7.70
2022-11-25T18:41:40.106Z,8.27
2022-11-25T18:44:08.175Z,6.78
2022-11-25T18:46:38.281Z,5.07
2022-11-25T18:49:15.425Z,6.25
2022-11-25T18:51:42.883Z,7.07
2022-11-25T18:54:10.441Z,7.07
2022-11-25T18:56:39.895Z,6.97
2022-11-25T18:59:09.461Z,7.05
2022-11-25T19:01:37.055Z,7.40
2022-11-25T19:04:04.617Z,6.70
2022-11-25T19:06:32.646Z,6.88
2022-11-25T19:09:00.082Z,7.10
2022-11-25T19:11:30.262Z,9.25
2022-11-25T19:14:02.461Z,7.95
2022-11-25T19:16:29.687Z,7.85
2022-11-25T19:18:56.919Z,10.88
2022-11-25T19:21:24.086Z,8.30
2022-11-25T19:23:51.360Z,13.50
2022-11-25T19:26:20.735Z,12.60
2022-11-25T19:28:50.820Z,11.25
2022-11-25T19:31:18.988Z,12.70
2022-11-25T19:33:47.750Z,7.65
2022-11-25T19:36:22.176Z,5.50
2022-11-25T19:38:49.313Z,5.38
2022-11-25T19:41:16.410Z,4.50
2022-11-25T19:43:43.582Z,4.45
2022-11-25T19:46:29.090Z,5.05
2022-11-25T19:48:59.551Z,4.78
2022-11-25T19:51:27.977Z,5.70
2022-11-25T19:53:55.401Z,5.90
2022-11-25T19:56:24.136Z,5.43
2022-11-25T19:58:52.770Z,5.60
2022-11-25T20:01:20.980Z,5.10
2022-11-25T20:03:50.334Z,4.63
2022-11-25T20:06:19.219Z,5.15
2022-11-25T20:08:46.886Z,5.00
2022-11-25T20:11:15.161Z,5.75
2022-11-25T20:13:43.335Z,5.20
2022-11-25T20:16:22.188Z,7.45
2022-11-25T20:18:50.616Z,7.80
2022-11-25T20:21:21.886Z,7.93
2022-11-25T20:23:50.234Z,9.32
2022-11-25T20:26:19.416Z,7.55
2022-11-25T20:28:46.878Z,7.43
2022-11-25T20:31:14.916Z,7.75
2022-11-25T20:33:42.145Z,8.20
2022-11-25T20:36:14.322Z,7.32
2022-11-25T20:38:46.377Z,6.22
2022-11-25T20:41:14.341Z,7.70
2022-11-25T20:43:43.003Z,7.95
2022-11-25T20:46:18.602Z,7.47
2022-11-25T20:48:46.947Z,6.85
2022-11-25T20:51:17.204Z,6.75
2022-11-25T20:53:46.270Z,7.22
2022-11-25T20:56:15.663Z,4.90
2022-11-25T20:58:43.370Z,5.18
2022-11-25T21:01:10.763Z,4.15
2022-11-25T21:03:37.895Z,4.70
2022-11-25T21:06:13.587Z,4.60
2022-11-25T21:08:45.325Z,4.90
2022-11-25T21:11:12.478Z,4.80
2022-11-25T21:13:39.647Z,4.63
2022-11-25T21:16:06.893Z,4.82
2022-11-25T21:18:34.353Z,4.60
2022-11-25T21:21:01.662Z,4.43
2022-11-25T21:23:29.652Z,4.45
2022-11-25T21:26:05.220Z,4.25
2022-11-25T21:28:33.495Z,4.43
2022-11-25T21:31:01.319Z,5.05
2022-11-25T21:33:29.013Z,4.80
2022-11-25T21:35:56.636Z,4.60
2022-11-25T21:38:25.380Z,4.50
2022-11-25T21:40:53.920Z,4.22
2022-11-25T21:43:23.982Z,4.70
2022-11-25T21:45:53.828Z,4.22
2022-11-25T21:48:24.099Z,4.28
2022-11-25T21:50:52.236Z,4.50
2022-11-25T21:53:21.366Z,4.65
2022-11-25T21:55:49.373Z,3.97
2022-11-25T21:58:18.438Z,4.47
2022-11-25T22:00:50.768Z,3.72
2022-11-25T22:03:19.304Z,4.00
2022-11-25T22:05:48.783Z,4.43
2022-11-25T22:08:17.163Z,4.13
2022-11-25T22:10:46.742Z,4.47
2022-11-25T22:13:18.574Z,4.50
2022-11-25T22:15:46.907Z,4.30
2022-11-25T22:18:28.797Z,4.07
2022-11-25T22:20:56.155Z,4.45
2022-11-25T22:23:23.914Z,4.55
2022-11-25T22:25:52.931Z,4.57
2022-11-25T22:28:22.614Z,4.70
2022-11-25T22:30:51.710Z,4.35
2022-11-25T22:33:19.785Z,4.10
2022-11-25T22:35:47.398Z,4.18
2022-11-25T22:38:15.410Z,3.85
2022-11-25T22:40:44.535Z,3.75
2022-11-25T22:43:18.336Z,4.72
2022-11-25T22:45:46.238Z,4.20
2022-11-25T22:48:15.919Z,4.28
2022-11-25T22:50:44.198Z,4.13
2022-11-25T22:53:15.353Z,4.65
2022-11-25T22:55:42.499Z,4.20
2022-11-25T22:58:10.617Z,3.80
2022-11-25T23:00:39.590Z,3.70
2022-11-25T23:03:08.705Z,3.78
2022-11-25T23:05:37.897Z,4.03
2022-11-25T23:08:16.007Z,4.38
2022-11-25T23:10:45.000Z,4.70
2022-11-25T23:13:13.070Z,4.00
2022-11-25T23:15:42.310Z,3.78
2022-11-25T23:18:13.005Z,3.97
2022-11-25T23:20:40.749Z,4.30
2022-11-25T23:23:19.053Z,4.40
2022-11-25T23:25:46.805Z,4.18
2022-11-25T23:28:14.410Z,3.95
2022-11-25T23:30:43.655Z,4.30
2022-11-25T23:33:17.908Z,4.30
2022-11-25T23:35:45.466Z,4.03
2022-11-25T23:38:18.579Z,3.65
2022-11-25T23:40:45.799Z,3.47
2022-11-25T23:43:16.330Z,3.70
2022-11-25T23:45:49.146Z,4.00
2022-11-25T23:48:18.105Z,3.83
2022-11-25T23:50:46.004Z,4.07
2022-11-25T23:53:25.098Z,4.45
2022-11-25T23:55:52.515Z,4.15
2022-11-25T23:58:21.063Z,3.70
